createdAt,value
2017-06-21T00:00:11.299Z,16.68
2017-06-21T00:01:11.875Z,16.66
2017-06-21T00:02:12.456Z,16.71
2017-06-21T00:03:13.027Z,16.76
2017-06-21T00:04:13.603Z,16.96
2017-06-21T00:05:14.179Z,17.05
2017-06-21T00:06:14.756Z,16.94
2017-06-21T00:07:15.332Z,16.75
2017-06-21T00:08:15.908Z,16.68
2017-06-21T00:09:16.484Z,16.57
2017-06-21T00:10:17.060Z,16.50
2017-06-21T00:11:17.635Z,16.38
2017-06-21T00:12:18.211Z,16.53
2017-06-21T00:13:18.787Z,16.51
2017-06-21T00:14:19.362Z,16.36
2017-06-21T00:15:19.939Z,16.33
2017-06-21T00:16:20.514Z,16.42
2017-06-21T00:17:21.093Z,16.91
2017-06-21T00:18:21.678Z,17.19
2017-06-21T00:19:22.253Z,17.33
2017-06-21T00:20:22.831Z,17.31
2017-06-21T00:21:23.407Z,17.16
2017-06-21T00:22:23.986Z,17.27
2017-06-21T00:23:24.563Z,17.01
2017-06-21T00:24:25.138Z,16.66
2017-06-21T00:25:25.717Z,16.71
2017-06-21T00:26:26.292Z,16.86
2017-06-21T00:27:26.868Z,16.64
2017-06-21T00:28:27.444Z,16.47
2017-06-21T00:29:28.019Z,16.54
2017-06-21T00:30:28.595Z,16.39
2017-06-21T00:31:29.171Z,16.36
2017-06-21T00:32:29.747Z,16.39
2017-06-21T00:33:30.322Z,16.41
2017-06-21T00:34:30.899Z,16.13
2017-06-21T00:35:31.475Z,16.58
2017-06-21T00:36:32.051Z,16.26
2017-06-21T00:37:32.641Z,16.05
2017-06-21T00:38:33.216Z,16.24
2017-06-21T00:39:33.793Z,16.46
2017-06-21T00:40:34.369Z,16.31
2017-06-21T00:41:34.946Z,15.95
2017-06-21T00:42:35.521Z,15.92
2017-06-21T00:43:36.098Z,15.86
2017-06-21T00:44:36.674Z,16.17
2017-06-21T00:45:37.252Z,15.95
2017-06-21T00:46:37.826Z,16.09
2017-06-21T00:47:38.403Z,16.02
2017-06-21T00:48:38.979Z,16.35
2017-06-21T00:49:39.554Z,16.42
2017-06-21T00:50:42.884Z,16.32
2017-06-21T00:51:43.459Z,16.33
2017-06-21T00:52:44.037Z,16.36
2017-06-21T00:53:44.612Z,16.24
2017-06-21T00:54:45.188Z,16.35
2017-06-21T00:55:45.764Z,16.26
2017-06-21T00:56:46.339Z,16.13
2017-06-21T00:57:46.929Z,15.92
2017-06-21T00:58:47.516Z,15.67
2017-06-21T00:59:48.105Z,15.79
2017-06-21T01:00:48.682Z,15.94
2017-06-21T01:01:49.270Z,15.72
2017-06-21T01:02:49.846Z,15.51
2017-06-21T01:03:50.434Z,15.90
2017-06-21T01:04:51.011Z,15.80
2017-06-21T01:05:51.588Z,15.67
2017-06-21T01:06:52.166Z,15.67
2017-06-21T01:07:52.742Z,15.80
2017-06-21T01:08:53.319Z,15.83
2017-06-21T01:09:53.894Z,15.58
2017-06-21T01:10:54.472Z,15.37
2017-06-21T01:11:55.060Z,15.90
2017-06-21T01:12:55.636Z,15.52
2017-06-21T01:13:56.213Z,15.40
2017-06-21T01:14:56.789Z,15.42
2017-06-21T01:15:57.375Z,15.25
2017-06-21T01:16:57.964Z,15.27
2017-06-21T01:17:58.552Z,15.46
2017-06-21T01:18:59.126Z,15.36
2017-06-21T01:19:59.704Z,15.70
2017-06-21T01:21:00.284Z,15.55
2017-06-21T01:22:00.867Z,15.44
2017-06-21T01:23:01.455Z,15.47
2017-06-21T01:24:02.030Z,15.46
2017-06-21T01:25:02.607Z,15.39
2017-06-21T01:26:03.181Z,15.57
2017-06-21T01:27:03.759Z,15.44
2017-06-21T01:28:04.334Z,15.86
2017-06-21T01:29:04.912Z,15.86
2017-06-21T01:30:05.486Z,15.90
2017-06-21T01:31:06.063Z,15.54
2017-06-21T01:32:06.638Z,15.09
2017-06-21T01:33:07.225Z,15.03
2017-06-21T01:34:07.802Z,15.18
2017-06-21T01:35:08.376Z,15.07
2017-06-21T01:36:08.954Z,15.03
2017-06-21T01:37:09.528Z,15.42
2017-06-21T01:38:10.106Z,15.42
2017-06-21T01:39:10.681Z,15.39
2017-06-21T01:40:11.258Z,15.75
2017-06-21T01:41:11.832Z,15.59
2017-06-21T01:42:12.410Z,15.29
2017-06-21T01:43:12.984Z,15.28
2017-06-21T01:44:13.559Z,15.29
2017-06-21T01:45:14.135Z,15.14
2017-06-21T01:46:14.721Z,15.17
2017-06-21T01:47:15.298Z,15.11
2017-06-21T01:48:15.873Z,15.33
2017-06-21T01:49:16.449Z,15.36
2017-06-21T01:50:17.026Z,15.10
2017-06-21T01:51:17.602Z,15.36
2017-06-21T01:52:18.177Z,15.35
2017-06-21T01:53:18.752Z,15.15
2017-06-21T01:54:19.327Z,15.14
2017-06-21T01:55:19.903Z,14.89
2017-06-21T01:56:20.477Z,15.15
2017-06-21T01:57:21.053Z,15.11
2017-06-21T01:58:21.628Z,14.86
2017-06-21T01:59:22.204Z,15.15
2017-06-21T02:00:22.779Z,15.07
2017-06-21T02:01:23.354Z,15.03
2017-06-21T02:02:23.928Z,15.21
2017-06-21T02:03:24.515Z,14.92
2017-06-21T02:04:25.091Z,15.29
2017-06-21T02:05:25.666Z,15.09
2017-06-21T02:06:26.244Z,15.17
2017-06-21T02:07:26.829Z,15.36
2017-06-21T02:08:27.406Z,15.14
2017-06-21T02:09:27.982Z,15.21
2017-06-21T02:10:28.558Z,15.18
2017-06-21T02:11:29.135Z,15.24
2017-06-21T02:12:29.710Z,15.09
2017-06-21T02:13:30.287Z,15.17
2017-06-21T02:14:30.862Z,15.18
2017-06-21T02:15:31.439Z,14.89
2017-06-21T02:16:32.027Z,14.85
2017-06-21T02:17:32.602Z,14.92
2017-06-21T02:18:33.178Z,14.88
2017-06-21T02:19:33.753Z,14.70
2017-06-21T02:20:34.330Z,14.89
2017-06-21T02:21:34.904Z,14.89
2017-06-21T02:22:35.481Z,14.69
2017-06-21T02:23:36.056Z,14.85
2017-06-21T02:24:36.643Z,14.82
2017-06-21T02:25:37.220Z,14.92
2017-06-21T02:26:37.796Z,14.89
2017-06-21T02:27:38.374Z,15.14
2017-06-21T02:28:38.947Z,14.99
2017-06-21T02:29:39.524Z,14.99
2017-06-21T02:30:40.098Z,14.89
2017-06-21T02:31:40.676Z,15.06
2017-06-21T02:32:41.263Z,14.85
2017-06-21T02:33:41.838Z,14.72
2017-06-21T02:34:42.415Z,14.96
2017-06-21T02:35:42.989Z,15.02
2017-06-21T02:36:43.566Z,15.00
2017-06-21T02:37:44.140Z,15.19
2017-06-21T02:38:44.725Z,14.81
2017-06-21T02:39:45.300Z,14.54
2017-06-21T02:40:45.875Z,14.81
2017-06-21T02:41:46.450Z,14.79
2017-06-21T02:42:47.036Z,14.85
2017-06-21T02:43:47.612Z,15.00
2017-06-21T02:44:48.187Z,14.86
2017-06-21T02:45:48.763Z,14.96
2017-06-21T02:46:49.350Z,14.91
2017-06-21T02:47:49.926Z,14.94
2017-06-21T02:48:50.502Z,15.18
2017-06-21T02:49:51.077Z,14.77
2017-06-21T02:50:51.653Z,15.03
2017-06-21T02:51:52.227Z,14.92
2017-06-21T02:52:52.805Z,14.91
2017-06-21T02:53:53.382Z,14.50
2017-06-21T02:54:53.953Z,14.41
2017-06-21T02:55:54.532Z,14.35
2017-06-21T02:56:55.117Z,14.48
2017-06-21T02:57:55.693Z,14.48
2017-06-21T02:58:56.268Z,14.59
2017-06-21T02:59:56.844Z,14.58
2017-06-21T03:00:57.418Z,14.69
2017-06-21T03:01:57.995Z,14.96
2017-06-21T03:02:58.569Z,15.11
2017-06-21T03:03:59.146Z,15.37
2017-06-21T03:04:59.722Z,15.22
2017-06-21T03:06:00.297Z,14.94
2017-06-21T03:07:00.872Z,14.92
2017-06-21T03:08:01.447Z,14.92
2017-06-21T03:09:02.022Z,15.00
2017-06-21T03:10:02.598Z,14.82
2017-06-21T03:11:03.174Z,14.88
2017-06-21T03:12:03.749Z,14.73
2017-06-21T03:13:04.325Z,14.81
2017-06-21T03:14:04.901Z,14.82
2017-06-21T03:15:05.479Z,14.68
2017-06-21T03:16:06.055Z,14.72
2017-06-21T03:17:06.634Z,14.77
2017-06-21T03:18:07.221Z,14.65
2017-06-21T03:19:07.798Z,14.89
2017-06-21T03:20:08.375Z,14.62
2017-06-21T03:21:08.951Z,14.45
2017-06-21T03:22:09.540Z,14.60
2017-06-21T03:23:10.116Z,14.60
2017-06-21T03:24:10.692Z,14.72
2017-06-21T03:25:11.270Z,14.81
2017-06-21T03:26:11.845Z,14.68
2017-06-21T03:27:12.421Z,14.65
2017-06-21T03:28:12.998Z,14.72
2017-06-21T03:29:13.585Z,14.58
2017-06-21T03:30:14.163Z,14.68
2017-06-21T03:31:14.739Z,14.55
2017-06-21T03:32:15.315Z,14.62
2017-06-21T03:33:15.890Z,14.53
2017-06-21T03:34:16.466Z,14.78
2017-06-21T03:35:17.044Z,14.72
2017-06-21T03:36:17.616Z,14.78
2017-06-21T03:37:18.191Z,14.53
2017-06-21T03:38:18.767Z,14.55
2017-06-21T03:39:19.343Z,14.84
2017-06-21T03:40:19.919Z,14.92
2017-06-21T03:41:20.497Z,14.94
2017-06-21T03:42:21.085Z,15.02
2017-06-21T03:43:21.660Z,14.66
2017-06-21T03:44:22.236Z,14.92
2017-06-21T03:45:22.814Z,14.86
2017-06-21T03:46:23.392Z,14.97
2017-06-21T03:47:23.968Z,14.68
2017-06-21T03:48:24.547Z,15.10
2017-06-21T03:49:25.123Z,15.06
2017-06-21T03:50:25.700Z,15.37
2017-06-21T03:51:26.277Z,15.07
2017-06-21T03:52:26.854Z,15.40
2017-06-21T03:53:27.431Z,15.49
2017-06-21T03:54:28.009Z,15.46
2017-06-21T03:55:28.589Z,15.61
2017-06-21T03:56:29.165Z,15.25
2017-06-21T03:57:29.741Z,14.59
2017-06-21T03:58:30.317Z,14.63
2017-06-21T03:59:30.894Z,14.48
2017-06-21T04:00:31.471Z,14.51
2017-06-21T04:01:32.049Z,14.99
2017-06-21T04:02:32.628Z,15.10
2017-06-21T04:03:33.204Z,15.18
2017-06-21T04:04:33.783Z,14.82
2017-06-21T04:05:34.370Z,14.96
2017-06-21T04:06:34.958Z,14.54
2017-06-21T04:07:35.535Z,14.47
2017-06-21T04:08:36.113Z,14.99
2017-06-21T04:09:36.691Z,15.18
2017-06-21T04:10:37.272Z,15.49
2017-06-21T04:11:37.845Z,15.25
2017-06-21T04:12:38.421Z,14.99
2017-06-21T04:13:39.000Z,14.85
2017-06-21T04:14:39.588Z,15.39
2017-06-21T04:15:40.165Z,14.96
2017-06-21T04:16:40.743Z,14.82
2017-06-21T04:17:41.320Z,14.73
2017-06-21T04:18:41.900Z,14.81
2017-06-21T04:19:42.479Z,14.99
2017-06-21T04:20:43.058Z,15.10
2017-06-21T04:21:43.637Z,15.09
2017-06-21T04:22:44.215Z,14.68
2017-06-21T04:23:44.794Z,14.63
2017-06-21T04:24:45.372Z,14.63
2017-06-21T04:25:45.952Z,14.60
2017-06-21T04:26:46.531Z,14.45
2017-06-21T04:27:47.107Z,14.59
2017-06-21T04:28:47.687Z,14.79
2017-06-21T04:29:48.266Z,14.78
2017-06-21T04:30:48.856Z,14.66
2017-06-21T04:31:49.435Z,14.70
2017-06-21T04:32:50.014Z,14.77
2017-06-21T04:33:50.592Z,14.91
2017-06-21T04:34:51.171Z,14.79
2017-06-21T04:35:51.748Z,14.69
2017-06-21T04:36:52.329Z,14.48
2017-06-21T04:37:52.905Z,14.66
2017-06-21T04:38:53.484Z,14.66
2017-06-21T04:39:54.062Z,14.84
2017-06-21T04:40:54.639Z,14.84
2017-06-21T04:41:55.219Z,15.18
2017-06-21T04:42:55.797Z,14.99
2017-06-21T04:43:56.376Z,15.10
2017-06-21T04:44:56.954Z,15.07
2017-06-21T04:45:57.532Z,15.02
2017-06-21T04:46:58.145Z,15.07
2017-06-21T04:47:58.691Z,15.29
2017-06-21T04:48:59.269Z,15.27
2017-06-21T04:49:59.848Z,15.29
2017-06-21T04:51:00.425Z,15.19
2017-06-21T04:52:01.006Z,15.06
2017-06-21T04:53:01.583Z,15.02
2017-06-21T04:54:02.163Z,15.46
2017-06-21T04:55:02.740Z,15.39
2017-06-21T04:56:03.317Z,15.17
2017-06-21T04:57:03.906Z,15.17
2017-06-21T04:58:04.484Z,15.37
2017-06-21T04:59:05.062Z,15.61
2017-06-21T05:00:05.641Z,15.61
2017-06-21T05:01:06.221Z,15.72
2017-06-21T05:02:06.800Z,15.49
2017-06-21T05:03:07.391Z,15.46
2017-06-21T05:04:07.980Z,15.27
2017-06-21T05:05:08.559Z,15.47
2017-06-21T05:06:09.137Z,15.68
2017-06-21T05:07:09.715Z,15.59
2017-06-21T05:08:10.294Z,15.28
2017-06-21T05:09:10.871Z,15.14
2017-06-21T05:10:11.451Z,15.37
2017-06-21T05:11:12.028Z,15.68
2017-06-21T05:12:12.606Z,15.86
2017-06-21T05:13:13.185Z,15.79
2017-06-21T05:14:13.763Z,15.70
2017-06-21T05:15:14.342Z,15.82
2017-06-21T05:16:14.921Z,15.77
2017-06-21T05:17:15.498Z,15.77
2017-06-21T05:18:16.089Z,16.31
2017-06-21T05:19:16.667Z,16.01
2017-06-21T05:20:17.245Z,16.24
2017-06-21T05:21:17.826Z,15.88
2017-06-21T05:22:18.403Z,16.10
2017-06-21T05:23:18.981Z,15.86
2017-06-21T05:24:19.560Z,16.35
2017-06-21T05:25:20.139Z,16.35
2017-06-21T05:26:20.730Z,16.29
2017-06-21T05:27:21.309Z,16.10
2017-06-21T05:28:21.888Z,16.31
2017-06-21T05:29:22.465Z,16.51
2017-06-21T05:30:23.044Z,16.47
2017-06-21T05:31:23.623Z,16.20
2017-06-21T05:32:24.204Z,16.72
2017-06-21T05:33:24.781Z,17.14
2017-06-21T05:34:25.360Z,17.01
2017-06-21T05:35:25.939Z,16.54
2017-06-21T05:36:26.516Z,16.79
2017-06-21T05:37:27.097Z,17.05
2017-06-21T05:38:27.675Z,17.09
2017-06-21T05:39:28.254Z,16.96
2017-06-21T05:40:28.833Z,17.02
2017-06-21T05:41:29.411Z,17.26
2017-06-21T05:42:29.993Z,17.29
2017-06-21T05:43:30.574Z,16.84
2017-06-21T05:44:31.150Z,16.56
2017-06-21T05:45:31.729Z,16.35
2017-06-21T05:46:32.307Z,16.47
2017-06-21T05:47:32.888Z,16.87
2017-06-21T05:48:33.467Z,16.71
2017-06-21T05:49:34.047Z,16.38
2017-06-21T05:50:34.628Z,16.43
2017-06-21T05:51:35.217Z,16.72
2017-06-21T05:52:35.796Z,16.56
2017-06-21T05:53:36.375Z,17.04
2017-06-21T05:54:36.954Z,16.75
2017-06-21T05:55:37.534Z,16.74
2017-06-21T05:56:38.114Z,17.02
2017-06-21T05:57:38.692Z,17.22
2017-06-21T05:58:39.270Z,16.87
2017-06-21T05:59:39.849Z,16.74
2017-06-21T06:00:40.427Z,16.66
2017-06-21T06:01:41.006Z,16.87
2017-06-21T06:02:41.588Z,17.20
2017-06-21T06:03:42.165Z,17.74
2017-06-21T06:04:42.744Z,17.20
2017-06-21T06:05:43.322Z,17.34
2017-06-21T06:06:43.902Z,17.51
2017-06-21T06:07:44.485Z,17.33
2017-06-21T06:08:45.060Z,16.97
2017-06-21T06:09:45.641Z,17.33
2017-06-21T06:10:46.231Z,17.64
2017-06-21T06:11:46.809Z,17.22
2017-06-21T06:12:47.389Z,17.33
2017-06-21T06:13:47.967Z,17.20
2017-06-21T06:14:48.548Z,17.72
2017-06-21T06:15:49.128Z,17.64
2017-06-21T06:16:49.707Z,17.44
2017-06-21T06:17:50.287Z,17.30
2017-06-21T06:18:50.866Z,17.46
2017-06-21T06:19:51.444Z,17.68
2017-06-21T06:20:52.025Z,17.51
2017-06-21T06:21:52.605Z,17.46
2017-06-21T06:22:53.185Z,17.36
2017-06-21T06:23:53.764Z,17.79
2017-06-21T06:24:54.343Z,17.70
2017-06-21T06:25:54.924Z,17.39
2017-06-21T06:26:55.503Z,17.39
2017-06-21T06:27:56.084Z,17.14
2017-06-21T06:28:56.663Z,17.26
2017-06-21T06:29:57.242Z,17.45
2017-06-21T06:30:57.823Z,18.00
2017-06-21T06:31:58.403Z,17.72
2017-06-21T06:32:58.987Z,17.63
2017-06-21T06:33:59.564Z,17.76
2017-06-21T06:35:00.143Z,17.87
2017-06-21T06:36:00.734Z,17.49
2017-06-21T06:37:01.313Z,17.48
2017-06-21T06:38:01.892Z,17.60
2017-06-21T06:39:02.473Z,17.95
2017-06-21T06:40:03.051Z,17.83
2017-06-21T06:41:03.632Z,18.22
2017-06-21T06:42:04.216Z,18.18
2017-06-21T06:43:04.790Z,18.01
2017-06-21T06:44:05.372Z,17.70
2017-06-21T06:45:05.952Z,17.64
2017-06-21T06:46:06.534Z,17.51
2017-06-21T06:47:07.113Z,17.85
2017-06-21T06:48:07.692Z,18.28
2017-06-21T06:49:08.275Z,18.59
2017-06-21T06:50:08.853Z,18.73
2017-06-21T06:51:09.435Z,18.41
2017-06-21T06:52:10.014Z,18.62
2017-06-21T06:53:10.604Z,18.41
2017-06-21T06:54:11.184Z,18.23
2017-06-21T06:55:11.763Z,18.18
2017-06-21T06:56:12.343Z,18.52
2017-06-21T06:57:12.925Z,18.96
2017-06-21T06:58:13.505Z,18.71
2017-06-21T06:59:14.086Z,18.45
2017-06-21T07:00:14.664Z,18.34
2017-06-21T07:01:15.244Z,18.59
2017-06-21T07:02:15.837Z,18.25
2017-06-21T07:03:16.430Z,18.74
2017-06-21T07:04:17.009Z,18.84
2017-06-21T07:05:17.589Z,18.86
2017-06-21T07:06:18.166Z,18.80
2017-06-21T07:07:18.746Z,18.74
2017-06-21T07:08:19.327Z,18.93
2017-06-21T07:09:19.906Z,19.41
2017-06-21T07:10:20.488Z,19.91
2017-06-21T07:11:21.068Z,19.64
2017-06-21T07:12:21.652Z,19.99
2017-06-21T07:13:22.229Z,20.04
2017-06-21T07:14:22.810Z,20.18
2017-06-21T07:15:23.392Z,20.24
2017-06-21T07:16:23.971Z,20.32
2017-06-21T07:17:24.550Z,20.10
2017-06-21T07:18:25.131Z,20.07
2017-06-21T07:19:25.712Z,19.88
2017-06-21T07:20:26.294Z,20.09
2017-06-21T07:21:26.873Z,20.02
2017-06-21T07:22:27.453Z,19.59
2017-06-21T07:23:28.032Z,19.22
2017-06-21T07:24:28.613Z,19.82
2017-06-21T07:25:29.195Z,19.91
2017-06-21T07:26:29.775Z,19.86
2017-06-21T07:27:30.356Z,19.24
2017-06-21T07:28:30.938Z,19.27
2017-06-21T07:29:31.516Z,19.94
2017-06-21T07:30:32.099Z,19.77
2017-06-21T07:31:32.680Z,19.96
2017-06-21T07:32:33.262Z,20.44
2017-06-21T07:33:33.855Z,20.00
2017-06-21T07:34:34.436Z,20.59
2017-06-21T07:35:35.018Z,20.40
2017-06-21T07:36:35.598Z,20.70
2017-06-21T07:37:36.179Z,20.66
2017-06-21T07:38:36.761Z,20.92
2017-06-21T07:39:37.342Z,20.44
2017-06-21T07:40:37.923Z,20.25
2017-06-21T07:41:38.504Z,19.77
2017-06-21T07:42:39.084Z,20.04
2017-06-21T07:43:39.666Z,20.00
2017-06-21T07:44:40.246Z,20.40
2017-06-21T07:45:40.829Z,20.90
2017-06-21T07:46:41.409Z,20.34
2017-06-21T07:47:41.988Z,20.39
2017-06-21T07:48:42.570Z,20.67
2017-06-21T07:49:43.151Z,20.65
2017-06-21T07:50:43.733Z,20.62
2017-06-21T07:51:44.313Z,21.03
2017-06-21T07:52:44.895Z,21.06
2017-06-21T07:53:45.475Z,21.35
2017-06-21T07:54:46.058Z,20.95
2017-06-21T07:55:46.641Z,20.78
2017-06-21T07:56:47.221Z,21.02
2017-06-21T07:57:47.802Z,21.07
2017-06-21T07:58:48.383Z,21.21
2017-06-21T07:59:48.965Z,21.43
2017-06-21T08:00:49.547Z,21.02
2017-06-21T08:01:50.131Z,20.65
2017-06-21T08:02:50.710Z,20.70
2017-06-21T08:03:51.290Z,20.58
2017-06-21T08:04:51.871Z,20.93
2017-06-21T08:05:52.454Z,20.74
2017-06-21T08:06:53.036Z,21.11
2017-06-21T08:07:53.619Z,20.92
2017-06-21T08:08:54.200Z,20.90
2017-06-21T08:09:54.780Z,20.70
2017-06-21T08:10:55.363Z,20.74
2017-06-21T08:11:55.945Z,20.67
2017-06-21T08:12:56.528Z,20.93
2017-06-21T08:13:57.109Z,20.80
2017-06-21T08:14:57.690Z,21.00
2017-06-21T08:15:58.284Z,21.73
2017-06-21T08:16:58.878Z,21.57
2017-06-21T08:17:59.459Z,21.48
2017-06-21T08:19:00.051Z,21.30
2017-06-21T08:20:00.636Z,21.48
2017-06-21T08:21:01.216Z,21.27
2017-06-21T08:22:01.809Z,21.82
2017-06-21T08:23:02.393Z,22.39
2017-06-21T08:24:02.973Z,22.51
2017-06-21T08:25:03.554Z,22.45
2017-06-21T08:26:04.137Z,22.59
2017-06-21T08:27:04.717Z,22.36
2017-06-21T08:28:05.302Z,22.23
2017-06-21T08:29:05.882Z,21.77
2017-06-21T08:30:06.463Z,21.75
2017-06-21T08:31:07.044Z,21.54
2017-06-21T08:32:07.637Z,22.17
2017-06-21T08:33:08.218Z,22.33
2017-06-21T08:34:08.800Z,22.65
2017-06-21T08:35:09.383Z,22.65
2017-06-21T08:36:09.976Z,22.72
2017-06-21T08:37:10.558Z,22.44
2017-06-21T08:38:11.140Z,22.15
2017-06-21T08:39:11.733Z,21.79
2017-06-21T08:40:12.317Z,21.46
2017-06-21T08:41:12.899Z,21.58
2017-06-21T08:42:13.482Z,21.50
2017-06-21T08:43:14.064Z,21.79
2017-06-21T08:44:14.646Z,21.66
2017-06-21T08:45:15.229Z,21.39
2017-06-21T08:46:15.812Z,21.72
2017-06-21T08:47:16.406Z,21.91
2017-06-21T08:48:16.989Z,21.83
2017-06-21T08:49:17.572Z,21.95
2017-06-21T08:50:18.153Z,22.13
2017-06-21T08:51:18.768Z,22.33
2017-06-21T08:52:19.317Z,22.22
2017-06-21T08:53:19.901Z,22.69
2017-06-21T08:54:20.482Z,22.47
2017-06-21T08:55:21.064Z,21.89
2017-06-21T08:56:21.646Z,22.17
2017-06-21T08:57:22.228Z,21.64
2017-06-21T08:58:22.821Z,21.79
2017-06-21T08:59:23.402Z,21.89
2017-06-21T09:00:23.987Z,22.06
2017-06-21T09:01:24.568Z,22.68
2017-06-21T09:02:25.149Z,22.75
2017-06-21T09:03:25.733Z,22.84
2017-06-21T09:04:26.313Z,22.62
2017-06-21T09:05:26.910Z,22.44
2017-06-21T09:06:27.491Z,22.91
2017-06-21T09:07:28.087Z,23.06
2017-06-21T09:08:28.682Z,22.84
2017-06-21T09:09:29.262Z,23.34
2017-06-21T09:10:29.846Z,23.78
2017-06-21T09:11:30.427Z,23.93
2017-06-21T09:12:31.021Z,23.78
2017-06-21T09:13:31.604Z,24.02
2017-06-21T09:14:32.185Z,23.98
2017-06-21T09:15:32.779Z,23.66
2017-06-21T09:16:33.361Z,23.68
2017-06-21T09:17:33.943Z,24.11
2017-06-21T09:18:34.526Z,24.53
2017-06-21T09:19:35.110Z,24.54
2017-06-21T09:20:35.692Z,24.74
2017-06-21T09:21:36.275Z,24.55
2017-06-21T09:22:36.857Z,24.36
2017-06-21T09:23:37.451Z,23.66
2017-06-21T09:24:38.032Z,23.51
2017-06-21T09:25:38.614Z,23.56
2017-06-21T09:26:39.198Z,23.24
2017-06-21T09:27:39.782Z,23.87
2017-06-21T09:28:40.364Z,24.26
2017-06-21T09:29:40.947Z,24.50
2017-06-21T09:30:41.529Z,24.51
2017-06-21T09:31:42.111Z,25.07
2017-06-21T09:32:42.695Z,25.08
2017-06-21T09:33:43.277Z,25.10
2017-06-21T09:34:43.863Z,24.66
2017-06-21T09:35:44.444Z,24.58
2017-06-21T09:36:45.026Z,24.14
2017-06-21T09:37:45.621Z,23.62
2017-06-21T09:38:46.204Z,23.71
2017-06-21T09:39:46.787Z,24.51
2017-06-21T09:40:47.371Z,24.95
2017-06-21T09:41:47.953Z,24.74
2017-06-21T09:42:48.537Z,24.53
2017-06-21T09:43:49.119Z,24.74
2017-06-21T09:44:49.701Z,24.65
2017-06-21T09:45:50.285Z,25.10
2017-06-21T09:46:50.868Z,25.17
2017-06-21T09:47:51.452Z,25.38
2017-06-21T09:48:52.034Z,25.47
2017-06-21T09:49:52.616Z,25.29
2017-06-21T09:50:53.201Z,24.29
2017-06-21T09:51:53.785Z,24.47
2017-06-21T09:52:54.369Z,24.36
2017-06-21T09:53:54.950Z,24.86
2017-06-21T09:54:55.532Z,25.14
2017-06-21T09:55:56.116Z,25.11
2017-06-21T09:56:56.701Z,25.31
2017-06-21T09:57:57.282Z,24.66
2017-06-21T09:58:57.865Z,25.11
2017-06-21T09:59:58.447Z,25.25
2017-06-21T10:00:59.029Z,24.77
2017-06-21T10:01:59.613Z,25.17
2017-06-21T10:03:00.197Z,25.28
2017-06-21T10:04:00.780Z,25.31
2017-06-21T10:05:01.377Z,25.08
2017-06-21T10:06:01.961Z,25.11
2017-06-21T10:07:02.557Z,25.23
2017-06-21T10:08:03.138Z,25.26
2017-06-21T10:09:03.721Z,25.13
2017-06-21T10:10:04.304Z,25.68
2017-06-21T10:11:04.888Z,25.75
2017-06-21T10:12:05.472Z,26.13
2017-06-21T10:13:06.054Z,26.23
2017-06-21T10:14:06.638Z,26.34
2017-06-21T10:15:07.222Z,26.48
2017-06-21T10:16:07.805Z,26.51
2017-06-21T10:17:08.390Z,26.19
2017-06-21T10:18:08.974Z,25.73
2017-06-21T10:19:09.556Z,25.47
2017-06-21T10:20:10.142Z,25.55
2017-06-21T10:21:10.724Z,25.21
2017-06-21T10:22:11.309Z,24.95
2017-06-21T10:23:11.892Z,25.21
2017-06-21T10:24:12.488Z,25.22
2017-06-21T10:25:13.070Z,25.31
2017-06-21T10:26:13.651Z,25.66
2017-06-21T10:27:14.236Z,25.51
2017-06-21T10:28:14.821Z,25.72
2017-06-21T10:29:15.403Z,25.87
2017-06-21T10:30:15.986Z,25.55
2017-06-21T10:31:16.568Z,25.35
2017-06-21T10:32:17.150Z,24.84
2017-06-21T10:33:17.744Z,25.22
2017-06-21T10:34:18.329Z,25.10
2017-06-21T10:35:18.912Z,25.16
2017-06-21T10:36:19.497Z,25.60
2017-06-21T10:37:20.080Z,25.81
2017-06-21T10:38:20.665Z,25.69
2017-06-21T10:39:21.249Z,25.84
2017-06-21T10:40:21.832Z,25.60
2017-06-21T10:41:22.415Z,25.54
2017-06-21T10:42:23.010Z,25.44
2017-06-21T10:43:23.593Z,25.63
2017-06-21T10:44:24.177Z,26.02
2017-06-21T10:45:24.762Z,26.06
2017-06-21T10:46:25.346Z,26.23
2017-06-21T10:47:25.929Z,26.80
2017-06-21T10:48:26.512Z,26.23
2017-06-21T10:49:27.095Z,25.50
2017-06-21T10:50:27.681Z,25.72
2017-06-21T10:51:28.276Z,26.23
2017-06-21T10:52:28.860Z,25.98
2017-06-21T10:53:29.443Z,25.98
2017-06-21T10:54:30.027Z,25.50
2017-06-21T10:55:30.610Z,26.10
2017-06-21T10:56:31.194Z,25.72
2017-06-21T10:57:31.789Z,25.40
2017-06-21T10:58:32.373Z,26.06
2017-06-21T10:59:32.956Z,26.38
2017-06-21T11:00:33.538Z,26.78
2017-06-21T11:01:34.122Z,25.99
2017-06-21T11:02:34.715Z,26.23
2017-06-21T11:03:35.298Z,26.53
2017-06-21T11:04:35.882Z,26.60
2017-06-21T11:05:36.469Z,27.22
2017-06-21T11:06:37.054Z,26.92
2017-06-21T11:07:37.634Z,25.80
2017-06-21T11:08:38.220Z,25.68
2017-06-21T11:09:38.803Z,25.29
2017-06-21T11:10:39.388Z,25.63
2017-06-21T11:11:39.972Z,25.98
2017-06-21T11:12:40.554Z,26.10
2017-06-21T11:13:41.140Z,26.05
2017-06-21T11:14:41.724Z,25.93
2017-06-21T11:15:42.307Z,26.88
2017-06-21T11:16:42.889Z,27.11
2017-06-21T11:17:43.472Z,27.33
2017-06-21T11:18:44.056Z,26.89
2017-06-21T11:19:44.638Z,26.60
2017-06-21T11:20:45.220Z,26.28
2017-06-21T11:21:45.802Z,26.28
2017-06-21T11:22:46.384Z,26.23
2017-06-21T11:23:46.968Z,26.62
2017-06-21T11:24:47.552Z,26.51
2017-06-21T11:25:48.136Z,26.28
2017-06-21T11:26:48.720Z,26.03
2017-06-21T11:27:49.315Z,26.09
2017-06-21T11:28:49.898Z,26.31
2017-06-21T11:29:50.483Z,26.37
2017-06-21T11:30:51.069Z,26.55
2017-06-21T11:31:51.652Z,26.89
2017-06-21T11:32:52.246Z,26.51
2017-06-21T11:33:52.830Z,26.28
2017-06-21T11:34:53.412Z,26.73
2017-06-21T11:35:53.995Z,26.74
2017-06-21T11:36:54.580Z,26.58
2017-06-21T11:37:55.165Z,25.85
2017-06-21T11:38:55.748Z,26.13
2017-06-21T11:39:56.332Z,26.51
2017-06-21T11:40:56.925Z,27.17
2017-06-21T11:41:57.511Z,27.47
2017-06-21T11:42:58.095Z,26.81
2017-06-21T11:43:58.681Z,26.89
2017-06-21T11:44:59.263Z,26.45
2017-06-21T11:45:59.846Z,26.75
2017-06-21T11:47:00.430Z,26.60
2017-06-21T11:48:01.015Z,26.63
2017-06-21T11:49:01.599Z,26.55
2017-06-21T11:50:02.183Z,26.51
2017-06-21T11:51:03.016Z,26.41
2017-06-21T11:52:03.599Z,26.02
2017-06-21T11:53:04.181Z,25.87
2017-06-21T11:54:04.767Z,26.48
2017-06-21T11:55:05.351Z,26.58
2017-06-21T11:56:05.934Z,26.45
2017-06-21T11:57:06.531Z,26.26
2017-06-21T11:58:07.114Z,26.58
2017-06-21T11:59:07.698Z,27.03
2017-06-21T12:00:08.283Z,26.62
2017-06-21T12:01:08.868Z,27.37
2017-06-21T12:02:09.451Z,27.37
2017-06-21T12:03:10.035Z,26.92
2017-06-21T12:04:10.621Z,26.95
2017-06-21T12:05:11.205Z,26.93
2017-06-21T12:06:11.789Z,27.17
2017-06-21T12:07:12.372Z,28.12
2017-06-21T12:08:12.957Z,27.08
2017-06-21T12:09:13.541Z,27.10
2017-06-21T12:10:14.125Z,27.44
2017-06-21T12:11:14.709Z,28.05
2017-06-21T12:12:15.293Z,27.95
2017-06-21T12:13:15.879Z,28.20
2017-06-21T12:14:16.474Z,27.86
2017-06-21T12:15:17.058Z,26.93
2017-06-21T12:16:17.642Z,26.90
2017-06-21T12:17:18.226Z,27.67
2017-06-21T12:18:18.809Z,28.12
2017-06-21T12:19:19.396Z,28.41
2017-06-21T12:20:19.983Z,28.57
2017-06-21T12:21:20.574Z,28.78
2017-06-21T12:22:21.160Z,28.63
2017-06-21T12:23:21.744Z,28.69
2017-06-21T12:24:22.327Z,27.93
2017-06-21T12:25:22.913Z,27.47
2017-06-21T12:26:23.497Z,27.68
2017-06-21T12:27:24.081Z,27.73
2017-06-21T12:28:24.665Z,27.10
2017-06-21T12:29:25.249Z,27.30
2017-06-21T12:30:25.834Z,26.85
2017-06-21T12:31:26.418Z,27.58
2017-06-21T12:32:27.004Z,27.80
2017-06-21T12:33:27.587Z,28.22
2017-06-21T12:34:28.173Z,28.30
2017-06-21T12:35:28.757Z,28.81
2017-06-21T12:36:29.341Z,28.56
2017-06-21T12:37:29.927Z,28.30
2017-06-21T12:38:30.522Z,28.49
2017-06-21T12:39:31.108Z,27.80
2017-06-21T12:40:31.693Z,27.29
2017-06-21T12:41:32.289Z,27.29
2017-06-21T12:42:32.873Z,27.00
2017-06-21T12:43:33.457Z,27.27
2017-06-21T12:44:34.041Z,27.96
2017-06-21T12:45:34.626Z,28.07
2017-06-21T12:46:35.211Z,28.85
2017-06-21T12:47:35.795Z,28.22
2017-06-21T12:48:36.379Z,28.17
2017-06-21T12:49:36.962Z,28.47
2017-06-21T12:50:37.549Z,29.24
2017-06-21T12:51:38.133Z,29.60
2017-06-21T12:52:38.718Z,29.04
2017-06-21T12:53:39.304Z,28.91
2017-06-21T12:54:39.887Z,28.66
2017-06-21T12:55:40.473Z,28.14
2017-06-21T12:56:41.056Z,28.07
2017-06-21T12:57:41.640Z,27.68
2017-06-21T12:58:42.226Z,28.17
2017-06-21T12:59:42.811Z,28.57